Time;durP1;ratioP1;P1;durP2;ratioP2;P2;SDS_P1;SDS_P2;PMS_P1;PMS_P2;Temp;Humidity;BMP_temperature;BMP_pressure;BME280_temperature;BME280_humidity;BME280_pressure;Samples;Min_cycle;Max_cycle;Signal;HPM_P1;HPM_P2
2022/09/12 00:01:26;;;;;;;4.60;3.88;;;13.00;99.90;;;;;;5049680;28;20025;-49
2022/09/12 00:03:57;;;;;;;6.32;4.15;;;12.90;99.90;;;;;;5047293;28;20041;-44
2022/09/12 00:06:31;;;;;;;4.32;3.75;;;12.80;99.90;;;;;;5048502;28;20045;-45
2022/09/12 00:09:00;;;;;;;5.05;4.53;;;12.80;99.90;;;;;;5049381;28;20029;-45
2022/09/12 00:11:26;;;;;;;5.07;3.90;;;12.80;99.90;;;;;;5049792;28;20057;-45
2022/09/12 00:13:59;;;;;;;7.55;4.32;;;12.80;99.90;;;;;;5038308;28;20109;-45
2022/09/12 00:16:27;;;;;;;4.40;4.00;;;12.70;99.90;;;;;;5010520;28;20022;-45
2022/09/12 00:18:52;;;;;;;5.70;3.90;;;12.70;99.90;;;;;;5030226;28;20040;-45
2022/09/12 00:21:19;;;;;;;4.65;3.83;;;12.60;99.90;;;;;;5040577;28;20033;-45
2022/09/12 00:23:45;;;;;;;6.88;4.75;;;12.60;99.90;;;;;;5051598;28;20030;-44
2022/09/12 00:26:10;;;;;;;6.03;4.30;;;12.60;99.90;;;;;;5053537;28;20025;-46
2022/09/12 00:28:38;;;;;;;4.32;3.90;;;12.60;99.90;;;;;;5053330;28;20033;-45
2022/09/12 00:31:06;;;;;;;6.20;3.92;;;12.50;99.90;;;;;;5053642;28;20024;-44
2022/09/12 00:33:33;;;;;;;4.55;3.90;;;12.50;99.90;;;;;;5052755;28;20028;-45
2022/09/12 00:35:59;;;;;;;6.25;4.85;;;12.50;99.90;;;;;;5029979;28;20018;-45
2022/09/12 00:38:24;;;;;;;6.32;4.07;;;12.50;99.90;;;;;;5013235;28;20691;-45
2022/09/12 00:40:49;;;;;;;4.78;4.28;;;12.50;99.90;;;;;;5013457;28;20042;-44
2022/09/12 00:43:44;;;;;;;5.10;4.30;;;12.50;99.90;;;;;;5012252;28;20056;-46
2022/09/12 00:46:18;;;;;;;5.95;4.50;;;12.40;99.90;;;;;;5010525;28;20030;-46
2022/09/12 00:49:14;;;;;;;6.10;4.82;;;12.50;99.90;;;;;;5029876;28;20020;-46
2022/09/12 00:51:44;;;;;;;5.45;4.78;;;12.50;99.90;;;;;;5040358;28;20029;-46
2022/09/12 00:54:15;;;;;;;5.30;4.80;;;12.60;99.90;;;;;;5021656;28;20018;-46
2022/09/12 00:56:42;;;;;;;5.60;4.32;;;12.60;99.90;;;;;;5032961;28;20037;-46
2022/09/12 00:59:20;;;;;;;7.18;5.30;;;12.50;99.90;;;;;;5023601;28;20021;-45
2022/09/12 01:01:48;;;;;;;8.55;5.70;;;12.50;99.90;;;;;;5021390;28;20022;-45
2022/09/12 01:04:15;;;;;;;9.55;6.50;;;12.50;99.90;;;;;;5015764;28;20034;-46
2022/09/12 01:06:42;;;;;;;10.40;6.57;;;12.50;99.90;;;;;;5013090;28;20030;-46
2022/09/12 01:09:11;;;;;;;7.03;5.40;;;12.50;99.90;;;;;;5013240;28;20495;-46
2022/09/12 01:11:39;;;;;;;11.35;6.88;;;12.50;99.90;;;;;;5024185;28;20018;-46
2022/09/12 01:14:06;;;;;;;8.70;6.72;;;12.50;99.90;;;;;;5040024;28;20018;-45
2022/09/12 01:16:35;;;;;;;12.60;8.07;;;12.40;99.90;;;;;;5052533;28;20028;-46
2022/09/12 01:19:20;;;;;;;11.43;8.15;;;12.40;99.90;;;;;;5052374;28;20413;-48
2022/09/12 01:22:11;;;;;;;12.68;8.00;;;12.40;99.90;;;;;;5052521;28;20025;-45
2022/09/12 01:25:04;;;;;;;10.63;7.18;;;12.40;99.90;;;;;;5051995;28;20025;-46
2022/09/12 01:27:36;;;;;;;11.05;7.65;;;12.40;99.90;;;;;;5052101;28;20036;-45
2022/09/12 01:30:32;;;;;;;9.77;6.93;;;12.40;99.90;;;;;;5052176;28;20022;-46
2022/09/12 01:33:20;;;;;;;12.30;6.65;;;12.30;99.90;;;;;;5050965;28;20478;-45
2022/09/12 01:35:54;;;;;;;10.05;7.10;;;12.30;99.90;;;;;;5052337;28;20036;-46
2022/09/12 01:38:35;;;;;;;9.20;6.88;;;12.30;99.90;;;;;;5050813;28;20371;-46
2022/09/12 01:41:16;;;;;;;12.77;8.32;;;12.20;99.90;;;;;;5052289;28;20024;-46
2022/09/12 01:43:57;;;;;;;15.68;8.27;;;12.20;99.90;;;;;;5044797;28;20036;-45
2022/09/12 01:46:26;;;;;;;;;;;12.20;99.90;;;;;;5051999;28;20505;-45
2022/09/12 01:49:07;;;;;;;20.02;12.05;;;12.20;99.90;;;;;;5050727;28;19913;-46
2022/09/12 01:51:40;;;;;;;18.27;12.25;;;12.20;99.90;;;;;;5050507;28;20103;-45
2022/09/12 01:54:19;;;;;;;16.05;11.02;;;12.20;99.90;;;;;;5051248;28;20516;-46
2022/09/12 01:56:47;;;;;;;14.88;10.32;;;12.10;99.90;;;;;;5049140;28;20052;-45
2022/09/12 01:59:23;;;;;;;17.45;10.52;;;12.00;99.90;;;;;;5020142;28;20026;-46
2022/09/12 02:02:05;;;;;;;23.08;11.73;;;12.00;99.90;;;;;;5020765;28;20424;-45
2022/09/12 02:04:51;;;;;;;21.77;12.10;;;12.10;99.90;;;;;;5021990;28;20391;-47
2022/09/12 02:07:22;;;;;;;21.13;11.38;;;12.10;99.90;;;;;;5011806;28;20030;-46
2022/09/12 02:09:57;;;;;;;12.70;9.48;;;12.00;99.90;;;;;;5016076;28;20020;-46
2022/09/12 02:12:28;;;;;;;21.05;11.10;;;12.00;99.90;;;;;;5030333;28;20030;-45
2022/09/12 02:15:00;;;;;;;20.50;12.30;;;12.00;99.90;;;;;;5039833;28;20356;-47
2022/09/12 02:17:25;;;;;;;17.55;11.00;;;11.90;99.90;;;;;;5011748;28;20501;-47
2022/09/12 02:19:56;;;;;;;17.17;11.25;;;11.90;99.90;;;;;;5008631;28;20042;-46
2022/09/12 02:22:26;;;;;;;19.92;10.40;;;11.90;99.90;;;;;;5011402;28;20117;-46
2022/09/12 02:24:57;;;;;;;15.98;10.30;;;11.80;99.90;;;;;;5015878;28;20040;-46
2022/09/12 02:27:43;;;;;;;19.33;10.65;;;11.80;99.90;;;;;;5042403;28;20020;-46
2022/09/12 02:30:09;;;;;;;13.68;9.70;;;11.70;99.90;;;;;;5051118;28;20024;-46
2022/09/12 02:32:46;;;;;;;21.35;12.73;;;11.70;99.90;;;;;;5050077;28;20394;-46
2022/09/12 02:35:38;;;;;;;17.25;10.70;;;11.80;99.90;;;;;;5050506;28;20028;-46
2022/09/12 02:38:09;;;;;;;15.93;10.95;;;11.70;99.90;;;;;;5050603;28;20025;-46
2022/09/12 02:40:34;;;;;;;;;;;11.70;99.90;;;;;;5049552;28;20028;-46
2022/09/12 02:43:02;;;;;;;15.93;10.93;;;11.70;99.90;;;;;;5049205;28;20368;-47
2022/09/12 02:45:30;;;;;;;20.05;13.23;;;11.60;99.90;;;;;;5051070;28;20021;-49
2022/09/12 02:48:03;;;;;;;24.85;13.85;;;11.60;99.90;;;;;;5051231;28;20060;-49
2022/09/12 02:50:29;;;;;;;20.00;13.73;;;11.60;99.90;;;;;;5051101;28;20029;-47
2022/09/12 02:52:58;;;;;;;24.40;14.60;;;11.60;99.90;;;;;;5050373;28;20036;-47
2022/09/12 02:55:25;;;;;;;22.58;14.65;;;11.60;99.90;;;;;;5044637;28;20390;-49
2022/09/12 02:57:51;;;;;;;22.83;12.90;;;11.60;99.90;;;;;;5042447;28;20017;-50
2022/09/12 03:00:16;;;;;;;20.30;12.18;;;11.60;99.90;;;;;;5050771;28;20044;-49
2022/09/12 03:02:45;;;;;;;23.80;14.02;;;11.60;99.90;;;;;;5045709;28;20551;-46
2022/09/12 03:05:36;;;;;;;28.27;15.35;;;11.60;99.90;;;;;;5040455;28;20020;-48
2022/09/12 03:08:47;;;;;;;22.73;14.00;;;11.60;99.90;;;;;;5049242;28;20033;-46
2022/09/12 03:11:51;;;;;;;28.38;16.67;;;11.60;99.90;;;;;;5050913;28;20537;-49
2022/09/12 03:14:51;;;;;;;22.42;14.80;;;11.70;99.90;;;;;;5039357;28;20086;-49
2022/09/12 03:17:41;;;;;;;41.40;24.17;;;11.70;99.90;;;;;;5049418;28;20486;-45
2022/09/12 03:20:39;;;;;;;44.15;22.27;;;11.80;99.90;;;;;;5050722;28;20063;-44
2022/09/12 03:23:16;;;;;;;43.13;25.20;;;11.90;99.90;;;;;;5050137;28;20385;-45
2022/09/12 03:25:50;;;;;;;40.60;21.70;;;11.90;99.90;;;;;;5050451;28;20064;-45
2022/09/12 03:28:17;;;;;;;43.50;23.80;;;11.90;99.90;;;;;;5050101;28;20040;-46
2022/09/12 03:30:46;;;;;;;38.55;22.23;;;11.90;99.90;;;;;;5046143;28;21557;-45
2022/09/12 03:33:23;;;;;;;44.72;24.58;;;12.00;99.90;;;;;;5039419;28;20026;-45
2022/09/12 03:35:49;;;;;;;44.90;24.42;;;12.00;99.90;;;;;;5050401;28;20102;-45
2022/09/12 03:38:15;;;;;;;41.33;21.25;;;12.00;99.90;;;;;;5050079;28;20032;-46
2022/09/12 03:40:41;;;;;;;49.80;24.55;;;12.00;99.90;;;;;;5050064;28;20029;-46
2022/09/12 03:43:08;;;;;;;47.65;26.45;;;11.90;99.90;;;;;;5049181;28;20021;-44
2022/09/12 03:45:34;;;;;;;50.80;26.67;;;12.00;99.90;;;;;;5048844;28;20053;-45
2022/09/12 03:48:00;;;;;;;46.97;24.05;;;11.90;99.90;;;;;;5048462;28;20029;-44
2022/09/12 03:50:26;;;;;;;42.85;22.65;;;11.90;99.90;;;;;;5049903;28;20048;-47
2022/09/12 03:52:51;;;;;;;42.30;22.13;;;11.90;99.90;;;;;;5049246;28;20032;-45
2022/09/12 03:55:17;;;;;;;44.50;22.75;;;11.90;99.90;;;;;;5018154;28;20136;-46
2022/09/12 03:57:43;;;;;;;39.38;22.73;;;11.90;99.90;;;;;;5013157;28;20026;-45
2022/09/12 04:00:09;;;;;;;43.97;24.27;;;11.90;99.90;;;;;;5014316;28;20040;-45
2022/09/12 04:02:35;;;;;;;46.63;24.05;;;11.90;99.90;;;;;;5039287;28;20075;-45
2022/09/12 04:05:00;;;;;;;31.35;19.10;;;11.80;99.90;;;;;;5050736;28;20036;-45
2022/09/12 04:07:26;;;;;;;32.50;18.10;;;11.80;99.90;;;;;;5053986;28;20031;-45
2022/09/12 04:09:52;;;;;;;35.67;21.35;;;11.70;99.90;;;;;;5053722;28;20028;-45
2022/09/12 04:12:18;;;;;;;35.60;20.05;;;11.70;99.90;;;;;;5053519;28;20581;-45
2022/09/12 04:14:44;;;;;;;29.17;18.05;;;11.70;99.90;;;;;;5041406;28;20021;-45
2022/09/12 04:17:09;;;;;;;27.77;17.45;;;11.70;99.90;;;;;;5051481;28;20032;-45
2022/09/12 04:19:35;;;;;;;37.28;19.70;;;11.70;99.90;;;;;;5045876;28;20069;-45
2022/09/12 04:22:00;;;;;;;30.00;17.63;;;11.60;99.90;;;;;;5050376;28;20465;-47
2022/09/12 04:24:26;;;;;;;33.13;18.88;;;11.60;99.90;;;;;;5053240;28;20056;-44
2022/09/12 04:26:52;;;;;;;37.40;21.13;;;11.60;99.90;;;;;;5045619;28;20037;-46
2022/09/12 04:29:17;;;;;;;35.33;19.95;;;11.70;99.90;;;;;;5026776;28;20082;-44
2022/09/12 04:31:43;;;;;;;31.67;19.13;;;11.70;99.90;;;;;;5044037;28;20024;-48
2022/09/12 04:34:08;;;;;;;27.08;16.88;;;11.70;99.90;;;;;;5053066;28;20017;-46
2022/09/12 04:36:34;;;;;;;31.20;17.17;;;11.60;99.90;;;;;;5053320;28;20029;-45
2022/09/12 04:39:01;;;;;;;28.85;15.93;;;11.60;99.90;;;;;;5051929;28;20108;-48
2022/09/12 04:41:34;;;;;;;32.28;17.73;;;11.60;99.90;;;;;;5053251;28;20025;-48
2022/09/12 04:44:03;;;;;;;26.30;16.48;;;11.50;99.90;;;;;;5052440;28;20456;-47
2022/09/12 04:46:35;;;;;;;27.20;16.15;;;11.50;99.90;;;;;;5051618;28;20123;-45
2022/09/12 04:49:00;;;;;;;24.33;15.02;;;11.50;99.90;;;;;;5053039;28;20025;-45
2022/09/12 04:51:29;;;;;;;29.42;16.17;;;11.40;99.90;;;;;;5053163;28;20024;-46
2022/09/12 04:53:57;;;;;;;27.48;15.95;;;11.40;99.90;;;;;;5052592;28;20017;-45
2022/09/12 04:56:24;;;;;;;24.20;14.25;;;11.30;99.90;;;;;;5046236;28;20096;-47
2022/09/12 04:58:49;;;;;;;22.90;14.32;;;11.30;99.90;;;;;;5025769;28;20029;-44
2022/09/12 05:01:17;;;;;;;26.00;15.48;;;11.30;99.90;;;;;;5030242;28;20022;-44
2022/09/12 05:03:44;;;;;;;25.52;16.20;;;11.30;99.90;;;;;;5022217;28;20083;-44
2022/09/12 05:06:13;;;;;;;28.40;15.82;;;11.40;99.90;;;;;;5023571;28;20093;-45
2022/09/12 05:08:40;;;;;;;24.83;14.82;;;11.40;99.90;;;;;;5024932;28;20534;-45
2022/09/12 05:11:09;;;;;;;28.15;16.25;;;11.40;99.90;;;;;;5032493;28;20057;-46
2022/09/12 05:13:34;;;;;;;29.92;17.02;;;11.40;99.90;;;;;;5027504;28;20079;-44
2022/09/12 05:16:02;;;;;;;30.55;17.58;;;11.40;99.90;;;;;;5044206;28;20029;-44
2022/09/12 05:18:29;;;;;;;26.67;17.20;;;11.50;99.90;;;;;;5052660;28;20556;-45
2022/09/12 05:20:55;;;;;;;30.05;17.95;;;11.50;99.90;;;;;;5052868;28;20561;-45
2022/09/12 05:23:20;;;;;;;31.70;19.20;;;11.50;99.90;;;;;;5042937;28;20120;-45
2022/09/12 05:25:51;;;;;;;29.95;18.75;;;11.60;99.90;;;;;;5044165;28;20413;-48
2022/09/12 05:28:17;;;;;;;26.73;17.60;;;11.60;99.90;;;;;;5052453;28;20033;-44
2022/09/12 05:30:43;;;;;;;28.52;17.83;;;11.70;99.90;;;;;;5052282;28;20091;-46
2022/09/12 05:33:08;;;;;;;32.08;19.45;;;11.70;99.90;;;;;;5051899;28;20028;-46
2022/09/12 05:35:34;;;;;;;25.10;16.02;;;11.80;99.90;;;;;;5052231;28;20027;-45
2022/09/12 05:37:59;;;;;;;26.60;15.70;;;11.80;99.90;;;;;;5050187;28;20449;-45
2022/09/12 05:40:25;;;;;;;28.73;17.88;;;11.80;99.90;;;;;;5051649;28;20067;-46
2022/09/12 05:42:50;;;;;;;35.72;18.42;;;11.80;99.90;;;;;;5051225;28;20040;-46
2022/09/12 05:45:16;;;;;;;29.55;17.85;;;11.90;99.90;;;;;;5051777;28;20023;-45
2022/09/12 05:47:42;;;;;;;28.35;16.80;;;11.90;99.90;;;;;;5051441;28;20512;-45
2022/09/12 05:50:09;;;;;;;25.08;16.83;;;11.90;99.90;;;;;;5051745;28;20029;-45
2022/09/12 05:52:35;;;;;;;29.02;18.02;;;12.00;99.90;;;;;;5051208;28;20395;-46
2022/09/12 05:55:01;;;;;;;25.13;16.27;;;12.00;99.90;;;;;;5043000;28;20017;-45
2022/09/12 05:57:28;;;;;;;26.80;16.52;;;12.10;99.90;;;;;;5031458;28;20167;-45
2022/09/12 05:59:53;;;;;;;25.90;15.45;;;12.10;99.90;;;;;;5031913;28;20493;-45
2022/09/12 06:02:19;;;;;;;25.38;14.88;;;12.10;99.90;;;;;;5031678;28;20030;-45
2022/09/12 06:04:44;;;;;;;24.23;14.55;;;12.20;99.90;;;;;;5037802;28;20072;-47
2022/09/12 06:07:10;;;;;;;50.40;29.67;;;12.20;99.90;;;;;;5049439;28;20021;-45
2022/09/12 06:09:35;;;;;;;53.55;35.15;;;12.30;99.90;;;;;;5051448;28;20432;-45
2022/09/12 06:12:01;;;;;;;42.60;26.30;;;12.30;99.90;;;;;;5051326;28;20032;-47
2022/09/12 06:14:27;;;;;;;37.45;22.00;;;12.30;99.90;;;;;;5042699;28;20014;-46
2022/09/12 06:16:53;;;;;;;27.60;18.52;;;12.40;99.90;;;;;;5046734;28;20092;-46
2022/09/12 06:19:21;;;;;;;25.02;16.75;;;12.50;99.90;;;;;;5049404;28;20553;-48
2022/09/12 06:21:48;;;;;;;24.77;15.60;;;12.50;99.90;;;;;;5047764;28;20024;-45
2022/09/12 06:24:14;;;;;;;22.13;14.00;;;12.50;99.90;;;;;;5032804;28;20025;-46
2022/09/12 06:26:40;;;;;;;21.40;13.27;;;12.60;99.90;;;;;;5027200;28;20046;-46
2022/09/12 06:29:07;;;;;;;20.95;12.80;;;12.60;99.90;;;;;;5038805;28;20029;-46
2022/09/12 06:31:35;;;;;;;20.50;13.70;;;12.70;99.90;;;;;;5030737;28;20520;-45
2022/09/12 06:34:03;;;;;;;21.73;14.55;;;12.80;99.90;;;;;;5030383;28;20038;-45
2022/09/12 06:36:31;;;;;;;19.40;13.45;;;12.80;99.90;;;;;;5029068;28;20032;-46
2022/09/12 06:38:59;;;;;;;22.25;13.52;;;12.90;99.90;;;;;;5030761;28;20475;-45
2022/09/12 06:41:26;;;;;;;24.95;15.90;;;13.00;99.90;;;;;;5030642;28;20383;-45
2022/09/12 06:43:52;;;;;;;23.02;15.52;;;13.10;99.90;;;;;;5029504;28;20033;-46
2022/09/12 06:46:18;;;;;;;23.38;15.52;;;13.20;99.90;;;;;;5029511;28;20486;-44
2022/09/12 06:48:43;;;;;;;23.55;15.35;;;13.30;99.90;;;;;;5029425;28;20105;-46
2022/09/12 06:51:14;;;;;;;32.95;18.10;;;13.40;99.90;;;;;;5029338;28;20017;-46
2022/09/12 06:53:41;;;;;;;25.10;16.58;;;13.50;99.90;;;;;;5029417;28;20022;-46
2022/09/12 06:56:11;;;;;;;36.85;18.67;;;13.60;99.90;;;;;;5031004;28;20033;-46
2022/09/12 06:58:37;;;;;;;34.93;17.60;;;13.70;99.90;;;;;;5041174;28;20075;-46
2022/09/12 07:01:24;;;;;;;27.77;16.45;;;13.80;99.90;;;;;;5020784;28;20264;-46
2022/09/12 07:03:52;;;;;;;34.33;18.33;;;13.90;99.90;;;;;;5021600;28;20122;-45
2022/09/12 07:06:19;;;;;;;35.92;17.92;;;14.10;99.90;;;;;;5030563;28;20394;-46
2022/09/12 07:08:45;;;;;;;28.85;17.38;;;14.20;99.90;;;;;;5030771;28;20029;-50
2022/09/12 07:11:20;;;;;;;24.52;14.90;;;14.30;99.90;;;;;;5030374;28;20025;-49
2022/09/12 07:13:48;;;;;;;19.75;13.48;;;14.40;99.90;;;;;;5035137;28;20021;-47
2022/09/12 07:16:14;;;;;;;20.08;13.10;;;14.50;99.90;;;;;;5041779;28;20021;-47
2022/09/12 07:18:40;;;;;;;19.05;12.82;;;14.50;99.90;;;;;;5050246;28;20037;-46
2022/09/12 07:21:09;;;;;;;18.55;13.20;;;14.60;99.90;;;;;;5048987;28;20482;-47
2022/09/12 07:23:35;;;;;;;25.10;15.45;;;14.70;99.90;;;;;;5049982;28;20498;-47
2022/09/12 07:26:03;;;;;;;25.92;14.35;;;14.80;99.90;;;;;;5048747;28;20108;-46
2022/09/12 07:28:30;;;;;;;21.83;13.27;;;14.90;99.90;;;;;;5046408;28;20036;-48
2022/09/12 07:30:57;;;;;;;27.27;14.82;;;15.00;99.90;;;;;;5037524;28;20032;-46
2022/09/12 07:33:26;;;;;;;21.67;14.35;;;15.10;99.90;;;;;;5049284;28;20091;-47
2022/09/12 07:35:53;;;;;;;21.48;13.98;;;15.20;99.90;;;;;;5050089;28;20426;-46
2022/09/12 07:38:19;;;;;;;17.85;11.85;;;15.30;99.90;;;;;;5050267;28;20024;-45
2022/09/12 07:40:45;;;;;;;18.38;11.88;;;15.30;99.90;;;;;;5049954;28;20029;-46
2022/09/12 07:43:10;;;;;;;17.20;12.05;;;15.40;99.90;;;;;;5048288;28;20545;-48
2022/09/12 07:45:36;;;;;;;28.48;15.07;;;15.50;99.90;;;;;;5049818;28;20032;-47
2022/09/12 07:48:02;;;;;;;20.88;12.98;;;15.60;99.90;;;;;;5050100;28;20028;-46
2022/09/12 07:50:27;;;;;;;19.02;13.57;;;15.70;99.90;;;;;;5050011;28;20110;-47
2022/09/12 07:52:54;;;;;;;24.25;13.77;;;15.80;99.90;;;;;;5049766;28;20021;-47
2022/09/12 07:55:20;;;;;;;18.15;12.77;;;15.90;99.90;;;;;;5049952;28;20084;-46
2022/09/12 07:57:48;;;;;;;18.20;11.65;;;16.10;99.90;;;;;;5049921;28;20036;-47
2022/09/12 08:00:14;;;;;;;16.85;10.70;;;16.40;99.90;;;;;;5042186;28;20487;-48
2022/09/12 08:02:40;;;;;;;17.48;11.65;;;17.00;99.90;;;;;;5041974;28;20121;-47
2022/09/12 08:05:06;;;;;;;17.75;10.77;;;17.30;99.90;;;;;;5049628;28;20029;-48
2022/09/12 08:07:32;;;;;;;13.40;9.60;;;17.70;99.90;;;;;;5049598;28;20108;-48
2022/09/12 08:09:59;;;;;;;16.55;10.23;;;18.20;99.90;;;;;;5049554;28;20025;-49
2022/09/12 08:12:26;;;;;;;14.18;9.20;;;18.70;99.90;;;;;;5049398;28;20056;-50
2022/09/12 08:14:51;;;;;;;11.98;8.50;;;19.10;99.90;;;;;;5040979;28;20024;-49
2022/09/12 08:17:17;;;;;;;15.10;10.20;;;19.70;99.90;;;;;;5041577;28;20040;-46
2022/09/12 08:19:43;;;;;;;10.45;7.53;;;20.30;99.90;;;;;;5049834;28;20115;-48
2022/09/12 08:22:10;;;;;;;11.23;6.72;;;21.00;99.90;;;;;;5040630;28;20597;-45
2022/09/12 08:24:35;;;;;;;7.18;5.82;;;21.80;99.90;;;;;;5039361;28;20374;-45
2022/09/12 08:27:01;;;;;;;9.90;6.97;;;23.10;99.90;;;;;;5048369;28;20116;-47
2022/09/12 08:29:26;;;;;;;8.10;6.30;;;24.50;97.30;;;;;;5023341;28;20045;-49
2022/09/12 08:31:52;;;;;;;10.93;8.00;;;25.30;96.10;;;;;;5008849;28;20026;-46
2022/09/12 08:34:18;;;;;;;6.85;5.60;;;26.30;92.40;;;;;;5012930;28;20426;-47
2022/09/12 08:36:44;;;;;;;13.07;7.40;;;27.50;91.20;;;;;;5028887;28;20026;-48
2022/09/12 08:39:13;;;;;;;5.70;4.97;;;28.20;86.60;;;;;;5028700;28;20029;-48
2022/09/12 08:41:45;;;;;;;6.55;5.07;;;29.10;82.30;;;;;;5028777;28;20022;-48
2022/09/12 08:44:16;;;;;;;6.50;5.13;;;29.80;80.00;;;;;;5031940;28;20030;-47
2022/09/12 08:47:05;;;;;;;6.32;5.20;;;30.50;77.30;;;;;;5032563;28;20398;-49
2022/09/12 08:49:34;;;;;;;5.55;4.75;;;31.40;72.80;;;;;;5032409;28;20378;-50
2022/09/12 08:52:09;;;;;;;6.50;5.00;;;31.30;71.60;;;;;;5032075;28;20029;-49
2022/09/12 08:54:36;;;;;;;4.68;3.92;;;31.60;70.00;;;;;;5043226;28;20024;-47
2022/09/12 08:57:04;;;;;;;8.15;5.95;;;32.00;69.00;;;;;;5050722;28;20021;-49
2022/09/12 08:59:43;;;;;;;6.22;4.60;;;31.90;67.10;;;;;;5052282;28;20116;-48
2022/09/12 09:02:23;;;;;;;;;;;31.60;68.40;;;;;;5052849;28;20052;-49
2022/09/12 09:04:58;;;;;;;6.38;5.07;;;31.70;67.00;;;;;;5052061;28;19904;-48
2022/09/12 09:07:53;;;;;;;5.90;4.55;;;32.00;66.90;;;;;;5037590;28;20113;-47
2022/09/12 09:10:56;;;;;;;5.10;4.45;;;32.30;66.10;;;;;;5011860;28;20029;-47
2022/09/12 09:16:38;;;;;;;4.72;4.22;;;31.40;63.10;;;;;;5042294;28;20578;-49
2022/09/12 09:19:11;;;;;;;4.28;3.88;;;31.00;65.10;;;;;;5051669;28;20044;-49
2022/09/12 09:22:08;;;;;;;6.25;4.40;;;31.50;66.70;;;;;;5050473;28;20025;-49
2022/09/12 09:24:42;;;;;;;4.35;3.80;;;31.60;64.50;;;;;;5043170;28;20563;-49
2022/09/12 09:27:36;;;;;;;4.32;3.92;;;30.60;64.90;;;;;;5034099;28;20056;-54
2022/09/12 09:30:02;;;;;;;5.28;3.85;;;30.80;64.30;;;;;;5051163;28;20028;-47
2022/09/12 09:32:36;;;;;;;5.28;2.97;;;30.80;61.50;;;;;;5051186;28;20514;-47
2022/09/12 09:35:20;;;;;;;3.60;2.90;;;31.70;62.70;;;;;;5050215;28;20029;-48
2022/09/12 09:38:04;;;;;;;6.85;3.45;;;31.70;61.60;;;;;;5051457;28;20053;-47
2022/09/12 09:40:45;;;;;;;3.15;2.80;;;32.30;63.80;;;;;;5049963;28;20028;-50
2022/09/12 09:43:21;;;;;;;4.80;2.95;;;31.60;63.10;;;;;;5048033;28;20394;-49
2022/09/12 09:45:48;;;;;;;4.55;2.75;;;31.20;61.20;;;;;;5038199;28;20479;-49
2022/09/12 09:48:35;;;;;;;3.80;3.40;;;31.50;59.90;;;;;;5049562;28;20492;-50
2022/09/12 09:51:04;;;;;;;8.65;7.22;;;31.20;61.20;;;;;;5051167;28;20052;-50
2022/09/12 09:53:35;;;;;;;4.13;3.30;;;31.40;60.80;;;;;;5050405;28;20104;-47
2022/09/12 09:56:07;;;;;;;5.32;3.72;;;31.40;60.10;;;;;;5050745;28;20032;-50
2022/09/12 09:58:34;;;;;;;4.07;3.75;;;31.20;61.30;;;;;;5051044;28;20029;-49
2022/09/12 10:01:03;;;;;;;5.22;4.25;;;32.00;59.30;;;;;;5049660;28;20498;-49
2022/09/12 10:03:34;;;;;;;3.45;3.00;;;31.70;59.60;;;;;;5050619;28;20033;-48
2022/09/12 10:06:20;;;;;;;5.30;3.25;;;31.80;60.60;;;;;;5050563;28;20071;-48
2022/09/12 10:08:47;;;;;;;4.18;3.78;;;33.20;61.50;;;;;;5050596;28;20112;-47
2022/09/12 10:11:21;;;;;;;4.78;3.30;;;33.80;58.30;;;;;;5050698;28;20039;-50
2022/09/12 10:13:51;;;;;;;4.32;2.53;;;32.80;58.10;;;;;;5044554;28;20020;-51
2022/09/12 10:16:23;;;;;;;2.60;2.10;;;31.80;58.60;;;;;;5041355;28;20101;-47
2022/09/12 10:18:51;;;;;;;4.28;2.30;;;32.00;57.60;;;;;;5050515;28;20037;-49
2022/09/12 10:21:28;;;;;;;2.28;1.90;;;32.50;59.20;;;;;;5050753;28;20040;-49
2022/09/12 10:24:20;;;;;;;3.30;1.80;;;33.30;59.20;;;;;;5048970;28;20025;-49
2022/09/12 10:27:04;;;;;;;2.30;2.10;;;33.60;56.30;;;;;;5049192;28;20017;-49
2022/09/12 10:29:34;;;;;;;2.67;1.80;;;33.60;57.00;;;;;;5044451;28;20024;-50
2022/09/12 10:32:04;;;;;;;2.13;1.90;;;33.70;58.00;;;;;;5042127;28;20017;-49
2022/09/12 10:34:53;;;;;;;3.88;1.67;;;33.70;53.40;;;;;;5050114;28;20348;-50
2022/09/12 10:37:39;;;;;;;2.08;1.67;;;33.00;56.80;;;;;;5050540;28;20115;-50
2022/09/12 10:40:19;;;;;;;4.38;2.47;;;32.90;56.30;;;;;;5048755;28;20040;-48
2022/09/12 10:42:46;;;;;;;3.20;2.60;;;32.00;55.50;;;;;;5046510;28;20378;-48
2022/09/12 10:45:23;;;;;;;2.33;1.77;;;31.90;57.80;;;;;;5041664;28;20685;-48
2022/09/12 10:47:50;;;;;;;5.13;2.05;;;32.50;57.90;;;;;;5048633;28;20025;-49
2022/09/12 10:50:25;;;;;;;1.88;1.75;;;32.90;58.20;;;;;;5050123;28;20514;-48
2022/09/12 10:52:51;;;;;;;3.05;2.42;;;33.00;58.30;;;;;;5049462;28;20099;-50
2022/09/12 10:55:21;;;;;;;2.83;2.13;;;32.70;57.20;;;;;;5050048;28;20040;-48
2022/09/12 10:58:07;;;;;;;10.07;2.53;;;32.00;57.60;;;;;;5050007;28;20429;-48
2022/09/12 11:00:40;;;;;;;3.13;2.13;;;31.60;58.50;;;;;;5033536;28;20025;-48
2022/09/12 11:03:19;;;;;;;3.80;2.60;;;30.70;60.60;;;;;;5029560;28;20549;-48
2022/09/12 11:05:55;;;;;;;4.50;2.92;;;29.90;60.20;;;;;;5030166;28;20025;-49
2022/09/12 11:08:49;;;;;;;4.47;2.50;;;29.80;61.00;;;;;;5030654;28;20025;-51
2022/09/12 11:11:34;;;;;;;3.17;2.38;;;29.90;63.70;;;;;;5028809;28;20029;-46
2022/09/12 11:14:41;;;;;;;2.28;2.08;;;30.30;62.00;;;;;;5037664;28;20093;-49
2022/09/12 11:17:23;;;;;;;3.65;2.10;;;30.70;60.90;;;;;;5036020;28;20029;-50
2022/09/12 11:19:49;;;;;;;3.00;2.65;;;31.10;60.50;;;;;;5025506;28;20502;-48
2022/09/12 11:22:55;;;;;;;7.00;2.53;;;31.20;59.50;;;;;;5030060;28;20061;-48
2022/09/12 11:25:33;;;;;;;2.85;2.53;;;31.30;58.10;;;;;;5030082;28;20434;-47
2022/09/12 11:28:26;;;;;;;3.72;2.40;;;31.80;59.10;;;;;;5029907;28;20548;-48
2022/09/12 11:31:05;;;;;;;2.00;1.90;;;31.60;58.20;;;;;;5030237;28;20075;-47
2022/09/12 11:33:44;;;;;;;2.85;2.30;;;31.60;59.40;;;;;;5029563;28;20105;-46
2022/09/12 11:36:35;;;;;;;4.75;3.20;;;31.60;59.10;;;;;;5030119;28;20388;-47
2022/09/12 11:39:15;;;;;;;4.82;3.63;;;31.20;60.00;;;;;;5026473;28;20041;-47
2022/09/12 11:41:48;;;;;;;2.95;2.65;;;30.70;58.50;;;;;;5030597;28;20033;-47
2022/09/12 11:44:23;;;;;;;3.10;2.47;;;30.50;59.30;;;;;;5031025;28;20052;-47
2022/09/12 11:46:49;;;;;;;4.80;2.70;;;30.70;60.30;;;;;;5041798;28;20087;-48
2022/09/12 11:49:39;;;;;;;3.90;2.88;;;30.50;62.20;;;;;;5048844;28;20029;-47
2022/09/12 11:52:15;;;;;;;4.03;2.60;;;30.60;60.90;;;;;;5048777;28;20027;-47
2022/09/12 11:55:04;;;;;;;3.85;2.33;;;30.80;60.80;;;;;;5047831;28;20074;-46
2022/09/12 11:57:38;;;;;;;3.50;2.20;;;30.90;58.00;;;;;;5048839;28;20028;-47
2022/09/12 12:00:14;;;;;;;2.63;2.40;;;30.80;60.20;;;;;;5048260;28;20163;-46
2022/09/12 12:02:56;;;;;;;2.88;2.58;;;30.90;58.20;;;;;;5048246;28;20032;-46
2022/09/12 12:05:24;;;;;;;3.33;2.15;;;30.60;58.10;;;;;;5047878;28;20518;-46
2022/09/12 12:07:58;;;;;;;5.78;2.42;;;31.00;56.40;;;;;;5049401;28;20049;-47
2022/09/12 12:10:37;;;;;;;2.92;2.28;;;30.50;56.50;;;;;;5050215;28;20010;-46
2022/09/12 12:13:25;;;;;;;2.45;2.25;;;30.20;59.20;;;;;;5048929;28;20037;-46
2022/09/12 12:15:54;;;;;;;16.08;11.93;;;30.20;61.90;;;;;;5038702;28;20075;-47
2022/09/12 12:18:25;;;;;;;5.82;2.70;;;30.00;59.80;;;;;;5051094;28;20064;-46
2022/09/12 12:20:53;;;;;;;4.30;2.50;;;29.00;59.40;;;;;;5053706;28;20033;-47
2022/09/12 12:24:07;;;;;;;3.92;2.33;;;29.10;63.20;;;;;;5052972;28;20043;-48
2022/09/12 12:26:42;;;;;;;2.70;2.45;;;28.80;62.60;;;;;;5032872;28;20033;-47
2022/09/12 12:29:16;;;;;;;4.70;2.67;;;28.60;61.50;;;;;;5032402;28;20044;-46
2022/09/12 12:32:03;;;;;;;3.65;2.78;;;28.20;63.00;;;;;;5033065;28;20028;-47
2022/09/12 12:34:38;;;;;;;2.67;2.47;;;28.40;63.00;;;;;;5033049;28;20447;-47
2022/09/12 12:37:19;;;;;;;3.22;2.80;;;28.50;63.20;;;;;;5033052;28;20049;-48
2022/09/12 12:39:46;;;;;;;4.38;2.70;;;28.00;63.20;;;;;;5039119;28;20021;-46
2022/09/12 12:42:32;;;;;;;3.80;2.55;;;27.00;61.20;;;;;;5050878;28;20021;-48
2022/09/12 12:44:58;;;;;;;4.60;2.60;;;26.60;63.40;;;;;;5040671;28;20052;-47
2022/09/12 12:47:33;;;;;;;2.45;2.20;;;26.80;64.00;;;;;;5033208;28;20029;-47
2022/09/12 12:50:12;;;;;;;2.78;2.30;;;26.70;63.40;;;;;;5040089;28;20024;-46
2022/09/12 12:52:57;;;;;;;5.27;2.70;;;26.90;64.30;;;;;;5039979;28;20052;-48
2022/09/12 12:55:44;;;;;;;4.85;2.58;;;26.70;65.10;;;;;;5044104;28;20548;-48
2022/09/12 12:58:31;;;;;;;4.40;2.45;;;25.90;65.90;;;;;;5044809;28;20359;-47
2022/09/12 13:01:14;;;;;;;2.85;2.25;;;25.80;64.60;;;;;;5046549;28;20028;-46
2022/09/12 13:04:13;;;;;;;5.25;2.80;;;25.20;67.60;;;;;;5040411;28;20036;-47
2022/09/12 13:06:41;;;;;;;5.68;2.90;;;24.70;67.60;;;;;;5030539;28;20025;-48
2022/09/12 13:09:20;;;;;;;4.88;2.88;;;24.70;68.70;;;;;;5044584;28;20021;-49